Time;durP1;ratioP1;P1;durP2;ratioP2;P2;SDS_P1;SDS_P2;PMS_P1;PMS_P2;Temp;Humidity;BMP_temperature;BMP_pressure;BME280_temperature;BME280_humidity;BME280_pressure;Samples;Min_cycle;Max_cycle;Signal;HPM_P1;HPM_P2
2022/07/22 00:01:54;;;;;;;21.85;18.70;;;;;;;20.50;100.00;96732.13;5046136;28;20075;-49
2022/07/22 00:04:22;;;;;;;23.75;20.85;;;;;;;20.54;100.00;96736.94;5042796;28;20044;-59
2022/07/22 00:06:51;;;;;;;26.85;22.55;;;;;;;20.32;100.00;96732.69;5044334;28;20076;-53
2022/07/22 00:09:19;;;;;;;22.83;18.98;;;;;;;20.42;100.00;96724.28;5041617;28;20530;-52
2022/07/22 00:11:48;;;;;;;29.70;21.58;;;;;;;20.46;100.00;96728.22;5041987;28;20091;-47
2022/07/22 00:14:16;;;;;;;23.25;20.65;;;;;;;20.54;100.00;96717.34;5045348;28;20092;-49
2022/07/22 00:16:46;;;;;;;25.13;19.60;;;;;;;20.50;100.00;96710.69;5046743;28;20661;-47
2022/07/22 00:19:14;;;;;;;21.95;18.20;;;;;;;20.41;100.00;96718.09;5041772;28;20083;-54
2022/07/22 00:21:43;;;;;;;26.42;23.15;;;;;;;20.49;100.00;96717.09;5039483;28;20075;-48
2022/07/22 00:24:11;;;;;;;32.38;25.13;;;;;;;20.50;100.00;96714.22;5042134;28;20546;-60
2022/07/22 00:26:40;;;;;;;32.25;25.50;;;;;;;20.31;100.00;96717.66;5026938;28;20072;-55
2022/07/22 00:29:08;;;;;;;34.20;25.73;;;;;;;20.38;100.00;96719.31;5038064;28;20080;-52
2022/07/22 00:31:36;;;;;;;30.75;24.70;;;;;;;20.20;100.00;96710.16;5040762;28;20750;-61
2022/07/22 00:34:06;;;;;;;44.28;29.85;;;;;;;20.06;100.00;96709.25;5044907;28;20075;-48
2022/07/22 00:36:35;;;;;;;34.65;26.98;;;;;;;20.05;100.00;96699.59;5026599;28;20064;-51
2022/07/22 00:39:03;;;;;;;32.85;25.08;;;;;;;20.11;100.00;96707.66;5045253;28;20526;-48
2022/07/22 00:41:32;;;;;;;28.23;22.58;;;;;;;20.18;100.00;96705.00;5044116;28;20076;-49
2022/07/22 00:44:07;;;;;;;29.25;23.75;;;;;;;20.02;100.00;96700.81;5045394;28;20084;-57
2022/07/22 00:46:37;;;;;;;22.63;19.40;;;;;;;19.70;100.00;96712.16;5041886;28;20084;-53
2022/07/22 00:49:08;;;;;;;21.35;18.83;;;;;;;19.60;100.00;96704.44;5044935;28;20064;-50
2022/07/22 00:51:39;;;;;;;22.52;20.17;;;;;;;19.66;100.00;96714.41;5041314;28;20260;-54
2022/07/22 00:54:08;;;;;;;25.55;21.17;;;;;;;19.62;100.00;96713.94;5040130;28;20083;-53
2022/07/22 00:56:37;;;;;;;24.20;21.60;;;;;;;19.62;100.00;96711.25;5045887;28;20442;-49
2022/07/22 00:59:08;;;;;;;22.93;19.87;;;;;;;19.57;100.00;96716.34;5048811;28;20076;-51
2022/07/22 01:01:37;;;;;;;23.23;19.50;;;;;;;19.54;100.00;96713.22;5042009;28;20481;-49
2022/07/22 01:04:07;;;;;;;21.20;18.95;;;;;;;19.31;100.00;96714.31;5042684;28;20092;-60
2022/07/22 01:06:36;;;;;;;24.20;20.63;;;;;;;19.35;100.00;96709.41;5042829;28;20099;-59
2022/07/22 01:09:04;;;;;;;22.10;18.65;;;;;;;19.31;100.00;96713.50;5045118;28;20085;-50
2022/07/22 01:11:33;;;;;;;18.08;15.63;;;;;;;19.39;100.00;96713.34;5044356;28;20068;-51
2022/07/22 01:14:01;;;;;;;17.52;15.57;;;;;;;19.15;100.00;96714.56;5045780;28;20072;-54
2022/07/22 01:16:31;;;;;;;22.20;17.88;;;;;;;19.03;100.00;96710.75;5044358;28;20083;-56
2022/07/22 01:18:59;;;;;;;25.80;21.83;;;;;;;19.04;100.00;96713.25;5045596;28;20068;-51
2022/07/22 01:21:30;;;;;;;25.52;21.63;;;;;;;19.21;100.00;96705.78;5045345;28;20686;-50
2022/07/22 01:23:59;;;;;;;23.88;20.65;;;;;;;19.44;100.00;96702.88;5048152;28;20064;-59
2022/07/22 01:26:27;;;;;;;24.23;21.67;;;;;;;19.45;100.00;96705.38;5045035;28;20081;-49
2022/07/22 01:28:56;;;;;;;23.83;20.67;;;;;;;19.49;100.00;96705.81;5049719;28;20460;-52
2022/07/22 01:31:25;;;;;;;25.02;22.08;;;;;;;19.49;100.00;96705.81;5045736;28;20069;-55
2022/07/22 01:33:54;;;;;;;25.48;21.60;;;;;;;19.48;100.00;96698.81;5044177;28;20561;-48
2022/07/22 01:36:22;;;;;;;25.33;22.25;;;;;;;19.28;100.00;96704.00;5047677;28;20068;-48
2022/07/22 01:38:52;;;;;;;24.75;22.02;;;;;;;19.43;100.00;96695.88;5047282;28;20080;-50
2022/07/22 01:41:21;;;;;;;24.60;21.40;;;;;;;19.40;100.00;96697.09;5046213;28;20712;-50
2022/07/22 01:43:50;;;;;;;22.92;19.67;;;;;;;19.45;100.00;96699.19;5043869;28;20542;-53
2022/07/22 01:46:18;;;;;;;20.45;17.15;;;;;;;19.44;100.00;96687.66;5050018;28;20072;-64
2022/07/22 01:48:47;;;;;;;18.25;15.20;;;;;;;19.15;100.00;96682.50;5047413;28;20527;-49
2022/07/22 01:51:15;;;;;;;19.42;16.35;;;;;;;19.02;100.00;96677.84;5047199;28;20081;-50
2022/07/22 01:53:44;;;;;;;20.35;15.77;;;;;;;18.74;100.00;96683.16;5049020;28;20068;-51
2022/07/22 01:56:14;;;;;;;19.05;16.52;;;;;;;18.80;100.00;96673.56;5048769;28;20044;-62
2022/07/22 01:58:43;;;;;;;;;;;;;;;18.73;100.00;96687.66;5049590;28;20531;-51
2022/07/22 02:01:11;;;;;;;18.38;16.48;;;;;;;18.73;100.00;96682.31;5048002;28;19967;-52
2022/07/22 02:03:39;;;;;;;19.10;16.73;;;;;;;18.62;100.00;96687.31;5046340;28;20060;-51
2022/07/22 02:06:08;;;;;;;17.27;15.00;;;;;;;18.67;100.00;96692.91;5048455;28;20538;-48
2022/07/22 02:08:36;;;;;;;17.42;15.63;;;;;;;18.57;100.00;96687.88;5048795;28;20521;-54
2022/07/22 02:11:05;;;;;;;37.97;16.70;;;;;;;18.56;100.00;96690.75;5049176;28;20060;-47
2022/07/22 02:13:34;;;;;;;49.35;17.90;;;;;;;18.47;100.00;96696.19;5047787;28;20068;-57
2022/07/22 02:16:03;;;;;;;32.67;15.43;;;;;;;18.40;100.00;96697.94;5044863;28;20084;-47
2022/07/22 02:18:31;;;;;;;16.25;14.57;;;;;;;18.35;100.00;96691.53;5049263;28;20142;-58
2022/07/22 02:21:00;;;;;;;12.95;11.75;;;;;;;18.08;100.00;96707.22;5048783;28;20514;-57
2022/07/22 02:23:28;;;;;;;15.10;13.30;;;;;;;18.26;100.00;96704.97;5047076;28;20065;-54
2022/07/22 02:25:57;;;;;;;15.88;14.13;;;;;;;17.91;100.00;96709.25;5047382;28;20084;-49
2022/07/22 02:28:26;;;;;;;15.82;14.23;;;;;;;18.20;100.00;96696.88;5047527;28;20084;-54
2022/07/22 02:30:55;;;;;;;18.27;15.70;;;;;;;18.39;100.00;96692.81;5047842;28;20074;-60
2022/07/22 02:33:24;;;;;;;18.05;16.02;;;;;;;18.47;100.00;96698.84;5047765;28;20473;-48
2022/07/22 02:35:52;;;;;;;18.88;15.88;;;;;;;18.43;100.00;96700.25;5048977;28;20076;-47
2022/07/22 02:38:22;;;;;;;19.02;16.98;;;;;;;18.17;100.00;96697.25;5046993;28;20383;-50
2022/07/22 02:40:51;;;;;;;22.88;19.23;;;;;;;18.17;100.00;96697.25;5047718;28;20079;-61
2022/07/22 02:43:19;;;;;;;21.17;18.75;;;;;;;18.46;100.00;96693.72;5043779;28;20072;-57
2022/07/22 02:45:48;;;;;;;22.30;17.02;;;;;;;18.46;100.00;96683.84;5047661;28;20091;-50
2022/07/22 02:48:18;;;;;;;19.98;17.23;;;;;;;18.32;100.00;96679.38;5048306;28;20084;-48
2022/07/22 02:50:47;;;;;;;21.65;18.20;;;;;;;18.22;100.00;96693.03;5047640;28;20084;-60
2022/07/22 02:53:16;;;;;;;21.83;18.58;;;;;;;18.24;100.00;96695.53;5046728;28;20072;-49
2022/07/22 02:55:44;;;;;;;26.52;19.45;;;;;;;18.37;100.00;96694.81;5046887;28;20072;-51
2022/07/22 02:58:12;;;;;;;24.30;20.40;;;;;;;18.25;100.00;96699.84;5047448;28;20076;-57
2022/07/22 03:00:41;;;;;;;23.45;18.63;;;;;;;17.86;100.00;96706.31;5046824;28;20158;-53
2022/07/22 03:03:09;;;;;;;20.05;17.98;;;;;;;17.55;100.00;96701.94;5044161;28;20065;-51
2022/07/22 03:05:39;;;;;;;21.60;17.83;;;;;;;17.76;100.00;96708.44;5045116;28;20079;-49
2022/07/22 03:08:07;;;;;;;25.13;18.73;;;;;;;17.61;100.00;96707.53;5047372;28;20068;-50
2022/07/22 03:10:36;;;;;;;20.80;18.60;;;;;;;17.69;100.00;96702.97;5046901;28;20081;-50
2022/07/22 03:13:04;;;;;;;20.73;18.50;;;;;;;17.75;100.00;96709.38;5047715;28;20045;-48
2022/07/22 03:15:33;;;;;;;19.58;17.27;;;;;;;17.96;100.00;96704.19;5047043;28;20084;-56
2022/07/22 03:18:01;;;;;;;19.70;17.52;;;;;;;18.01;100.00;96695.63;5047127;28;20068;-53
2022/07/22 03:20:30;;;;;;;22.23;19.10;;;;;;;17.86;100.00;96695.66;5046793;28;20091;-54
2022/07/22 03:23:00;;;;;;;26.85;19.88;;;;;;;17.83;100.00;96690.69;5044853;28;20075;-47
2022/07/22 03:25:30;;;;;;;24.60;20.30;;;;;;;17.81;100.00;96681.19;5046967;28;20512;-48
2022/07/22 03:27:59;;;;;;;24.70;20.27;;;;;;;17.76;100.00;96687.09;5046885;28;20083;-56
2022/07/22 03:30:28;;;;;;;21.30;17.92;;;;;;;17.67;100.00;96688.97;5047281;28;20087;-49
2022/07/22 03:32:56;;;;;;;16.13;13.68;;;;;;;17.62;100.00;96699.38;5046610;28;20073;-49
2022/07/22 03:35:25;;;;;;;15.73;14.13;;;;;;;17.35;100.00;96718.66;5046445;28;20068;-52
2022/07/22 03:37:53;;;;;;;41.00;18.55;;;;;;;17.28;100.00;96726.53;5046566;28;20084;-49
2022/07/22 03:40:23;;;;;;;29.33;22.17;;;;;;;17.13;100.00;96726.47;5043606;28;20099;-47
2022/07/22 03:42:51;;;;;;;25.60;21.42;;;;;;;17.05;100.00;96721.22;5045308;28;20084;-53
2022/07/22 03:45:20;;;;;;;28.92;20.85;;;;;;;17.06;100.00;96723.69;5046446;28;20089;-54
2022/07/22 03:47:48;;;;;;;23.98;19.48;;;;;;;16.96;100.00;96727.59;5044660;28;20089;-49
2022/07/22 03:50:17;;;;;;;24.23;19.75;;;;;;;17.30;100.00;96721.84;5047110;28;20057;-57
2022/07/22 03:52:45;;;;;;;21.17;17.55;;;;;;;17.67;100.00;96715.66;5046586;28;20092;-52
2022/07/22 03:55:13;;;;;;;21.02;16.50;;;;;;;17.71;100.00;96711.59;5047613;28;20080;-48
2022/07/22 03:57:43;;;;;;;23.08;17.67;;;;;;;17.51;100.00;96697.13;5046598;28;20086;-49
2022/07/22 04:00:12;;;;;;;22.63;17.95;;;;;;;17.53;100.00;96698.63;5042857;28;20081;-49
2022/07/22 04:02:41;;;;;;;27.33;19.10;;;;;;;17.54;100.00;96696.78;5044842;28;20076;-54
2022/07/22 04:05:09;;;;;;;27.98;20.52;;;;;;;17.61;100.00;96702.22;5044788;28;20081;-46
2022/07/22 04:07:38;;;;;;;17.95;16.02;;;;;;;18.24;100.00;96700.84;5046209;28;20072;-53
2022/07/22 04:10:07;;;;;;;17.35;15.55;;;;;;;18.79;100.00;96685.22;5047191;28;20091;-49
2022/07/22 04:12:37;;;;;;;17.33;15.48;;;;;;;19.08;100.00;96684.28;5045848;28;20135;-46
2022/07/22 04:15:08;;;;;;;15.30;13.80;;;;;;;19.82;100.00;96678.44;5045719;28;20091;-50
2022/07/22 04:17:37;;;;;;;15.73;13.52;;;;;;;20.21;100.00;96680.50;5045083;28;20552;-49
2022/07/22 04:20:06;;;;;;;15.38;13.75;;;;;;;20.63;100.00;96674.09;5044552;28;20077;-48
2022/07/22 04:22:35;;;;;;;17.50;13.68;;;;;;;21.08;100.00;96662.81;5045070;28;20088;-54
2022/07/22 04:25:04;;;;;;;16.25;13.35;;;;;;;21.74;100.00;96664.63;5046563;28;20095;-49
2022/07/22 04:27:32;;;;;;;15.60;12.70;;;;;;;21.73;100.00;96671.03;5044811;28;20076;-49
2022/07/22 04:30:01;;;;;;;13.27;11.98;;;;;;;22.38;100.00;96663.81;5043196;28;20081;-54
2022/07/22 04:32:31;;;;;;;12.50;10.68;;;;;;;23.03;100.00;96654.78;5045805;28;20091;-56
2022/07/22 04:34:59;;;;;;;13.50;12.10;;;;;;;23.24;100.00;96654.41;5045995;28;20071;-55
2022/07/22 04:37:27;;;;;;;14.60;12.63;;;;;;;23.36;100.00;96655.31;5042027;28;20084;-57
2022/07/22 04:39:56;;;;;;;14.27;12.82;;;;;;;23.85;100.00;96647.44;5045000;28;20464;-58
2022/07/22 04:42:24;;;;;;;12.93;11.45;;;;;;;23.40;100.00;96655.69;5043724;28;20084;-54
2022/07/22 04:44:53;;;;;;;12.90;11.43;;;;;;;23.57;100.00;96658.66;5045691;28;20443;-57
2022/07/22 04:47:21;;;;;;;12.93;11.73;;;;;;;24.08;100.00;96652.97;5047031;28;20096;-57
2022/07/22 04:49:51;;;;;;;12.63;11.25;;;;;;;24.74;100.00;96650.47;5046232;28;20088;-54
2022/07/22 04:52:19;;;;;;;14.05;10.52;;;;;;;25.10;100.00;96654.94;5045922;28;20091;-50
2022/07/22 04:54:49;;;;;;;11.32;10.30;;;;;;;25.39;100.00;96657.81;5046078;28;20060;-53
2022/07/22 04:57:17;;;;;;;11.13;9.98;;;;;;;25.61;100.00;96661.59;5045433;28;20137;-55
2022/07/22 04:59:45;;;;;;;12.27;10.32;;;;;;;25.65;100.00;96657.34;5044982;28;20102;-49
2022/07/22 05:02:14;;;;;;;11.07;10.07;;;;;;;25.82;100.00;96662.06;5046079;28;20081;-48
2022/07/22 05:04:42;;;;;;;13.05;11.80;;;;;;;26.02;100.00;96660.63;5045137;28;20093;-52
2022/07/22 05:07:12;;;;;;;13.40;11.80;;;;;;;25.04;100.00;96656.66;5045443;28;20543;-53
2022/07/22 05:09:41;;;;;;;15.00;13.45;;;;;;;24.60;100.00;96658.78;5042339;28;20092;-60
2022/07/22 05:12:09;;;;;;;15.13;13.60;;;;;;;24.99;100.00;96653.03;5045707;28;20081;-52
2022/07/22 05:14:37;;;;;;;16.70;14.32;;;;;;;24.45;100.00;96661.03;5045005;28;20073;-54
2022/07/22 05:17:10;;;;;;;17.98;15.48;;;;;;;25.00;100.00;96649.28;5045075;28;20710;-52
2022/07/22 05:19:43;;;;;;;16.00;14.40;;;;;;;24.87;100.00;96656.50;5045164;28;20474;-47
2022/07/22 05:22:13;;;;;;;17.75;14.50;;;;;;;26.11;100.00;96658.38;5044682;28;20206;-47
2022/07/22 05:24:41;;;;;;;16.08;14.40;;;;;;;26.52;100.00;96659.22;5047175;28;20523;-56
2022/07/22 05:27:09;;;;;;;17.25;14.13;;;;;;;27.00;100.00;96655.25;5047861;28;20084;-54
2022/07/22 05:29:38;;;;;;;16.10;14.35;;;;;;;26.01;100.00;96652.75;5041642;28;20085;-57
2022/07/22 05:32:06;;;;;;;16.73;14.98;;;;;;;25.83;100.00;96661.00;5047741;28;20080;-63
2022/07/22 05:34:35;;;;;;;17.15;15.35;;;;;;;25.23;100.00;96653.94;5043966;28;20080;-53
2022/07/22 05:37:03;;;;;;;17.25;15.43;;;;;;;24.28;100.00;96660.00;5044046;28;20085;-51
2022/07/22 05:39:33;;;;;;;17.27;15.48;;;;;;;23.87;100.00;96673.09;5050976;28;20084;-52
2022/07/22 05:42:02;;;;;;;;;;;;;;;23.50;100.00;96665.97;5052586;28;20087;-51
2022/07/22 05:44:30;;;;;;;17.48;15.73;;;;;;;24.18;100.00;96663.22;5051586;28;19924;-53
2022/07/22 05:46:58;;;;;;;18.42;16.40;;;;;;;23.82;100.00;96662.19;5052565;28;20084;-53
2022/07/22 05:49:27;;;;;;;18.05;16.20;;;;;;;24.05;100.00;96658.78;5052039;28;20076;-49
2022/07/22 05:51:57;;;;;;;17.63;15.77;;;;;;;24.52;100.00;96658.25;5051381;28;20511;-54
2022/07/22 05:54:26;;;;;;;17.80;16.00;;;;;;;24.63;100.00;96654.78;5048120;28;20080;-55
2022/07/22 05:56:56;;;;;;;18.20;16.30;;;;;;;24.30;100.00;96656.03;5047016;28;20103;-52
2022/07/22 05:59:24;;;;;;;18.17;15.65;;;;;;;24.31;100.00;96652.28;5051439;28;20080;-50
2022/07/22 06:01:52;;;;;;;20.55;15.82;;;;;;;24.08;100.00;96657.53;5048550;28;20092;-51
2022/07/22 06:04:21;;;;;;;22.40;17.30;;;;;;;24.03;100.00;96655.53;5049660;28;20084;-50
2022/07/22 06:06:50;;;;;;;19.60;17.05;;;;;;;24.11;100.00;96654.38;5051187;28;20466;-54
2022/07/22 06:09:18;;;;;;;20.27;17.77;;;;;;;24.03;100.00;96657.41;5051601;28;20084;-53
2022/07/22 06:11:47;;;;;;;19.48;17.42;;;;;;;24.03;100.00;96662.78;5047702;28;20087;-54
2022/07/22 06:14:16;;;;;;;18.90;16.90;;;;;;;23.47;100.00;96661.88;5046014;28;20088;-48
2022/07/22 06:16:50;;;;;;;20.55;17.38;;;;;;;24.31;100.00;96664.94;5045048;28;20083;-53
2022/07/22 06:19:18;;;;;;;20.77;17.77;;;;;;;23.31;100.00;96663.25;5045083;28;20107;-53
2022/07/22 06:21:47;;;;;;;20.90;18.55;;;;;;;23.81;100.00;96657.84;5035560;28;20091;-57
2022/07/22 06:24:15;;;;;;;20.00;17.50;;;;;;;24.44;100.00;96667.50;5047113;28;20077;-55
2022/07/22 06:26:44;;;;;;;19.50;16.98;;;;;;;24.07;100.00;96661.28;5047025;28;20085;-47
2022/07/22 06:29:13;;;;;;;21.73;16.83;;;;;;;24.71;100.00;96656.31;5048178;28;20495;-50
2022/07/22 06:31:42;;;;;;;21.55;17.65;;;;;;;25.01;100.00;96656.31;5046510;28;20081;-50
2022/07/22 06:34:11;;;;;;;21.70;17.15;;;;;;;25.23;100.00;96657.44;5047262;28;20080;-64
2022/07/22 06:36:39;;;;;;;21.13;16.35;;;;;;;25.52;100.00;96655.69;5047084;28;20080;-50
2022/07/22 06:39:07;;;;;;;18.65;16.45;;;;;;;25.22;100.00;96654.97;5048567;28;20092;-59
2022/07/22 06:41:36;;;;;;;17.88;15.88;;;;;;;25.24;100.00;96655.56;5048109;28;20475;-54
2022/07/22 06:44:05;;;;;;;18.80;16.83;;;;;;;25.71;100.00;96656.41;5047915;28;20464;-52
2022/07/22 06:46:33;;;;;;;18.73;16.75;;;;;;;25.56;100.00;96661.44;5045246;28;20092;-57
2022/07/22 06:49:03;;;;;;;21.10;17.60;;;;;;;24.91;100.00;96659.56;5049446;28;20084;-49
2022/07/22 06:51:32;;;;;;;19.38;17.27;;;;;;;25.16;100.00;96662.13;5045374;28;20088;-50
2022/07/22 06:54:00;;;;;;;19.02;17.02;;;;;;;25.66;100.00;96667.09;5045673;28;20623;-51
2022/07/22 06:56:29;;;;;;;19.55;16.25;;;;;;;25.38;100.00;96666.97;5046233;28;20083;-52
2022/07/22 06:58:57;;;;;;;20.23;16.63;;;;;;;25.61;100.00;96660.75;5046987;28;20477;-54
2022/07/22 07:01:26;;;;;;;22.08;18.63;;;;;;;26.25;100.00;96656.22;5046624;28;20093;-52
2022/07/22 07:03:54;;;;;;;21.52;17.58;;;;;;;25.90;100.00;96661.72;5048258;28;20520;-50
2022/07/22 07:06:24;;;;;;;24.40;17.98;;;;;;;25.86;100.00;96649.72;5046403;28;20990;-54
2022/07/22 07:08:52;;;;;;;19.73;17.05;;;;;;;26.87;100.00;96652.84;5045140;28;20109;-50
2022/07/22 07:11:22;;;;;;;24.55;17.73;;;;;;;26.43;100.00;96652.56;5047735;28;20077;-53
2022/07/22 07:13:50;;;;;;;17.85;15.63;;;;;;;27.18;100.00;96644.22;5045882;28;20080;-57
2022/07/22 07:16:18;;;;;;;19.85;15.55;;;;;;;27.33;100.00;96643.66;5045981;28;20077;-49
2022/07/22 07:18:47;;;;;;;17.55;15.68;;;;;;;27.04;100.00;96642.03;5046161;28;20077;-48
2022/07/22 07:21:16;;;;;;;18.45;16.15;;;;;;;27.25;100.00;96641.34;5048175;28;20085;-58
2022/07/22 07:23:45;;;;;;;17.45;15.63;;;;;;;27.12;100.00;96647.06;5040438;28;20092;-53
2022/07/22 07:26:14;;;;;;;19.25;15.63;;;;;;;27.36;100.00;96643.16;5045525;28;20548;-50
2022/07/22 07:28:42;;;;;;;17.85;15.77;;;;;;;27.26;100.00;96642.19;5049659;28;20084;-56
2022/07/22 07:31:11;;;;;;;19.38;15.73;;;;;;;27.54;100.00;96636.66;5049004;28;20464;-53
2022/07/22 07:33:40;;;;;;;17.67;15.50;;;;;;;27.54;100.00;96639.38;5046155;28;20539;-52
2022/07/22 07:36:08;;;;;;;17.25;14.63;;;;;;;27.77;100.00;96635.69;5049259;28;20076;-48
2022/07/22 07:38:37;;;;;;;19.30;16.25;;;;;;;27.99;100.00;96632.16;5049276;28;20475;-50
2022/07/22 07:41:07;;;;;;;19.08;15.52;;;;;;;27.68;100.00;96629.81;5048967;28;20447;-49
2022/07/22 07:43:35;;;;;;;18.92;15.85;;;;;;;27.93;100.00;96631.25;5047751;28;20179;-58
2022/07/22 07:46:04;;;;;;;15.82;14.13;;;;;;;28.14;100.00;96633.16;5047078;28;20085;-51
2022/07/22 07:48:32;;;;;;;17.33;15.25;;;;;;;27.99;100.00;96630.28;5048977;28;20088;-48
2022/07/22 07:51:00;;;;;;;17.10;15.07;;;;;;;28.32;100.00;96634.75;5048449;28;20111;-50
2022/07/22 07:53:29;;;;;;;19.13;15.18;;;;;;;28.05;100.00;96631.16;5049511;28;20466;-47
2022/07/22 07:55:57;;;;;;;16.55;13.98;;;;;;;28.61;100.00;96624.50;5048918;28;20092;-52
2022/07/22 07:58:27;;;;;;;16.15;12.60;;;;;;;28.38;100.00;96628.31;5049070;28;20076;-56
2022/07/22 08:00:56;;;;;;;15.00;13.50;;;;;;;28.51;100.00;96629.03;5047256;28;20080;-58
2022/07/22 08:03:26;;;;;;;;;;;;;;;28.77;100.00;96621.97;5047229;28;20474;-59
2022/07/22 08:05:54;;;;;;;13.85;12.35;;;;;;;28.76;100.00;96618.41;5041885;28;19964;-58
2022/07/22 08:08:23;;;;;;;13.15;11.68;;;;;;;28.74;100.00;96615.16;5043911;28;20167;-55
2022/07/22 08:10:51;;;;;;;11.88;10.18;;;;;;;28.54;100.00;96610.34;5045741;28;20084;-52
2022/07/22 08:13:30;;;;;;;12.63;11.30;;;;;;;29.36;100.00;96615.72;5045894;28;20091;-56
2022/07/22 08:15:58;;;;;;;13.07;11.43;;;;;;;29.22;100.00;96615.34;5048573;28;20091;-52
2022/07/22 08:18:27;;;;;;;14.15;11.45;;;;;;;28.66;100.00;96614.78;5047317;28;20088;-53
2022/07/22 08:20:56;;;;;;;13.40;11.52;;;;;;;28.53;100.00;96607.88;5044909;28;20077;-52
2022/07/22 08:23:27;;;;;;;13.57;10.50;;;;;;;29.43;100.00;96611.69;5047144;28;20091;-52
2022/07/22 08:25:56;;;;;;;11.25;10.00;;;;;;;28.81;100.00;96617.66;5048372;28;20077;-50
2022/07/22 08:28:24;;;;;;;11.60;10.10;;;;;;;28.53;100.00;96619.56;5047830;28;20081;-47
2022/07/22 08:30:54;;;;;;;12.27;10.70;;;;;;;29.04;100.00;96617.38;5044781;28;20072;-50
2022/07/22 08:33:23;;;;;;;14.55;11.20;;;;;;;29.24;100.00;96613.97;5048486;28;20091;-51
2022/07/22 08:35:51;;;;;;;12.95;10.85;;;;;;;29.39;100.00;96613.28;5045019;28;20077;-52
2022/07/22 08:38:19;;;;;;;14.50;11.88;;;;;;;29.16;100.00;96614.47;5048635;28;20045;-53
2022/07/22 08:40:48;;;;;;;12.90;11.60;;;;;;;29.26;100.00;96611.84;5048330;28;20164;-57
2022/07/22 08:43:16;;;;;;;13.77;11.20;;;;;;;29.67;100.00;96614.88;5050920;28;20076;-55
2022/07/22 08:45:46;;;;;;;13.25;11.02;;;;;;;29.75;100.00;96614.34;5045485;28;20103;-54
2022/07/22 08:48:16;;;;;;;12.60;11.30;;;;;;;29.05;100.00;96605.41;5044094;28;20076;-56
2022/07/22 08:50:45;;;;;;;14.27;10.52;;;;;;;29.89;100.00;96601.13;5041709;28;20072;-58
2022/07/22 08:53:14;;;;;;;12.30;11.10;;;;;;;29.34;100.00;96607.81;5044148;28;20072;-56
2022/07/22 08:55:43;;;;;;;13.23;10.45;;;;;;;29.06;100.00;96601.63;5040016;28;20080;-54
2022/07/22 08:58:13;;;;;;;12.05;10.73;;;;;;;28.97;100.00;96602.31;5039014;28;20085;-54
2022/07/22 09:00:42;;;;;;;12.93;10.82;;;;;;;29.43;100.00;96602.72;5044651;28;20072;-52
2022/07/22 09:03:25;;;;;;;14.65;10.50;;;;;;;30.26;96.46;96584.72;5045144;28;20329;-56
2022/07/22 09:05:54;;;;;;;13.68;10.23;;;;;;;29.52;100.00;96590.25;5045114;28;20111;-53
2022/07/22 09:08:22;;;;;;;14.77;10.38;;;;;;;29.93;100.00;96590.53;5044581;28;20079;-53
2022/07/22 09:10:51;;;;;;;14.25;10.95;;;;;;;29.89;99.37;96590.22;5043156;28;20505;-56
2022/07/22 09:13:20;;;;;;;17.73;10.63;;;;;;;30.78;96.94;96577.50;5046981;28;20124;-59
2022/07/22 09:15:49;;;;;;;12.52;10.05;;;;;;;30.52;95.13;96579.31;5046183;28;20088;-61
2022/07/22 09:18:18;;;;;;;12.85;10.38;;;;;;;30.13;98.54;96581.63;5049547;28;20519;-55
2022/07/22 09:20:48;;;;;;;12.38;9.77;;;;;;;30.51;94.11;96573.06;5044010;28;20468;-50
2022/07/22 09:23:20;;;;;;;12.18;9.48;;;;;;;30.82;78.57;96564.97;5046384;28;20083;-53
2022/07/22 09:25:48;;;;;;;17.90;9.80;;;;;;;30.15;86.12;96580.28;5044024;28;20080;-56
2022/07/22 09:28:20;;;;;;;10.70;9.60;;;;;;;30.48;84.01;96579.03;5050132;28;20107;-52
2022/07/22 09:30:52;;;;;;;11.02;9.68;;;;;;;30.42;79.86;96573.84;5052177;28;20092;-58
2022/07/22 09:33:23;;;;;;;12.68;9.82;;;;;;;30.66;74.38;96566.00;5052417;28;20478;-48
2022/07/22 09:35:53;;;;;;;13.68;10.02;;;;;;;30.30;80.77;96562.41;5052261;28;21076;-55
2022/07/22 09:38:29;;;;;;;11.25;9.38;;;;;;;30.36;76.17;96570.31;5049057;28;20076;-50
2022/07/22 09:40:58;;;;;;;10.32;9.20;;;;;;;30.22;87.35;96570.00;5051662;28;20076;-57
2022/07/22 09:43:32;;;;;;;;;;;;;;;30.87;80.63;96553.28;5047172;28;20095;-54
2022/07/22 09:46:00;;;;;;;10.50;9.40;;;;;;;30.70;77.64;96556.22;5050873;28;19964;-49
2022/07/22 09:48:29;;;;;;;12.07;9.88;;;;;;;30.49;82.17;96556.19;5052999;28;20071;-46
2022/07/22 09:51:00;;;;;;;10.98;9.38;;;;;;;31.04;82.07;96548.38;5052642;28;20565;-53
2022/07/22 09:53:30;;;;;;;11.88;8.98;;;;;;;31.21;81.09;96539.88;5051575;28;20088;-51
2022/07/22 09:55:59;;;;;;;9.57;8.55;;;;;;;31.22;78.24;96541.53;5051667;28;20092;-56
2022/07/22 09:58:27;;;;;;;10.88;8.43;;;;;;;31.32;67.02;96540.75;5049643;28;20539;-49
2022/07/22 10:00:59;;;;;;;10.63;8.48;;;;;;;31.04;63.25;96537.47;5045688;28;20095;-50
2022/07/22 10:03:30;;;;;;;10.77;9.10;;;;;;;30.90;68.48;96542.66;5046306;28;20085;-50
2022/07/22 10:06:00;;;;;;;10.52;8.40;;;;;;;31.71;63.94;96538.19;5051932;28;20452;-49
2022/07/22 10:08:31;;;;;;;9.10;7.90;;;;;;;31.08;53.80;96540.47;5051169;28;20065;-52
2022/07/22 10:11:01;;;;;;;9.52;8.02;;;;;;;31.67;60.58;96534.38;5051341;28;20080;-60
2022/07/22 10:13:30;;;;;;;;;;;;;;;31.27;59.49;96533.34;5046129;28;20454;-56
2022/07/22 10:15:58;;;;;;;11.20;7.32;;;;;;;30.87;55.31;96526.06;5047112;28;20394;-50
2022/07/22 10:18:29;;;;;;;14.73;7.47;;;;;;;31.69;51.97;96524.00;5051209;28;20557;-50
2022/07/22 10:21:07;;;;;;;10.77;8.75;;;;;;;31.28;59.64;96529.56;5051358;28;20526;-53
2022/07/22 10:23:35;;;;;;;10.23;8.40;;;;;;;31.78;57.59;96514.16;5044291;28;20065;-52
2022/07/22 10:26:05;;;;;;;9.80;8.43;;;;;;;31.82;57.64;96514.41;5050975;28;20077;-47
2022/07/22 10:28:35;;;;;;;11.70;8.15;;;;;;;31.35;59.28;96512.91;5051126;28;20077;-55
2022/07/22 10:31:21;;;;;;;9.77;7.57;;;;;;;31.28;53.24;96509.63;5051115;28;20089;-56
2022/07/22 10:33:52;;;;;;;9.75;7.78;;;;;;;31.04;52.54;96515.69;5047404;28;20112;-49
2022/07/22 10:36:33;;;;;;;8.50;7.60;;;;;;;31.42;50.78;96519.72;5051000;28;20100;-58
2022/07/22 10:39:07;;;;;;;9.95;8.68;;;;;;;31.90;56.89;96502.94;5050984;28;20084;-52
2022/07/22 10:41:37;;;;;;;11.48;7.88;;;;;;;31.94;56.94;96505.94;5054936;28;20095;-52
2022/07/22 10:44:06;;;;;;;8.40;7.28;;;;;;;31.39;54.62;96503.13;5050448;28;20097;-50
2022/07/22 10:46:52;;;;;;;8.07;7.20;;;;;;;31.68;50.33;96506.81;5042925;28;20077;-48
2022/07/22 10:49:21;;;;;;;8.55;7.38;;;;;;;32.41;48.74;96507.31;5050660;28;20084;-47
2022/07/22 10:52:16;;;;;;;8.10;7.18;;;;;;;32.72;46.64;96505.19;5043989;28;20096;-50
2022/07/22 10:55:17;;;;;;;10.13;7.65;;;;;;;32.75;49.04;96507.34;5048166;28;20092;-60
2022/07/22 10:57:45;;;;;;;;;;;;;;;31.73;49.45;96499.72;5049950;28;20095;-56
2022/07/22 11:00:14;;;;;;;8.88;7.80;;;;;;;32.43;49.17;96500.50;5050444;28;19963;-53
2022/07/22 11:02:42;;;;;;;10.07;7.13;;;;;;;32.47;49.15;96496.09;5050050;28;20083;-50
2022/07/22 11:05:11;;;;;;;8.10;7.30;;;;;;;32.02;51.84;96497.97;5049800;28;20089;-51
2022/07/22 11:07:43;;;;;;;9.32;7.65;;;;;;;31.98;50.44;96499.66;5049798;28;20077;-50
2022/07/22 11:10:12;;;;;;;8.68;7.15;;;;;;;31.86;47.92;96496.38;5040484;28;20077;-48
2022/07/22 11:12:47;;;;;;;7.95;7.13;;;;;;;32.30;48.58;96488.25;5047372;28;20084;-51
2022/07/22 11:15:15;;;;;;;8.52;6.95;;;;;;;32.04;50.09;96482.16;5050027;28;20091;-51
2022/07/22 11:17:44;;;;;;;8.15;6.97;;;;;;;32.07;48.46;96486.22;5050520;28;20739;-49
2022/07/22 11:20:13;;;;;;;8.02;7.15;;;;;;;32.37;47.72;96493.41;5050136;28;20068;-47
2022/07/22 11:22:47;;;;;;;10.98;7.68;;;;;;;32.14;46.32;96484.84;5049970;28;20071;-51
2022/07/22 11:25:16;;;;;;;8.73;7.75;;;;;;;32.39;45.48;96483.03;5050426;28;20095;-58